LTAF/ADA METAR and TAF weather

Enter ICAO airport designator
Station Type Date Time Source
LTAF METAR 2019/12/13 03:20 UTC NOAA

LTAF 130320Z 02009KT 9999 -SHRA SCT035 BKN100 11/09 Q1009 NOSIG


Station Type Date Time Source
LTAF Decoded METAR 2019/12/13 03:20 UTC NOAA

Adana / Sakirpasa, Turkey (LTAF) 36-59N 035-18E 20M
Dec 12, 2019 - 10:20 PM EST / 2019.12.13 0320 UTC
Wind: from the NNE (020 degrees) at 10 MPH (9 KT):0
Visibility: greater than 7 mile(s):0
Sky conditions: mostly cloudy
Weather: light rain showers
Temperature: 51 F (11 C)
Dew Point: 48 F (9 C)
Relative Humidity: 87%
Pressure (altimeter): 29.80 in. Hg (1009 hPa)
ob: LTAF 130320Z 02009KT 9999 -SHRA SCT035 BKN100 11/09 Q1009 NOSIG
cycle: 3

Station Type Date Time Source
LTAF TAF 2019/12/12 18:01 UTC NOAA

TAF LTAF 121640Z 1218/1318 02009KT 9999 -SHRA SCT035 BKN100

Example: see airport list